Time;durP1;ratioP1;P1;durP2;ratioP2;P2;SDS_P1;SDS_P2;PMS_P1;PMS_P2;Temp;Humidity;BMP_temperature;BMP_pressure;BME280_temperature;BME280_humidity;BME280_pressure;Samples;Min_cycle;Max_cycle;Signal;HPM_P1;HPM_P2
2023/04/03 00:02:00;;;;;;;3.03;1.70;;;;;;;3.48;75.14;103288.69;6091204;19;20484;-76
2023/04/03 00:04:05;;;;;;;4.40;2.13;;;;;;;3.40;75.29;103292.78;6094803;19;20027;-78
2023/04/03 00:06:13;;;;;;;4.28;1.90;;;;;;;3.44;75.36;103289.41;6094125;19;20013;-76
2023/04/03 00:08:18;;;;;;;3.55;2.00;;;;;;;3.43;75.32;103295.47;6098325;19;20002;-77
2023/04/03 00:10:25;;;;;;;5.47;2.17;;;;;;;3.40;75.46;103295.38;6096024;19;20018;-77
2023/04/03 00:12:30;;;;;;;3.35;2.15;;;;;;;3.40;75.16;103295.38;6092156;19;20047;-76
2023/04/03 00:14:37;;;;;;;5.88;2.60;;;;;;;3.43;75.15;103294.59;6105618;19;20472;-76
2023/04/03 00:16:42;;;;;;;5.13;1.95;;;;;;;3.38;74.68;103299.63;6104544;19;20337;-76
2023/04/03 00:18:49;;;;;;;3.10;1.92;;;;;;;3.38;74.62;103293.56;6104319;19;20017;-76
2023/04/03 00:20:54;;;;;;;4.82;2.15;;;;;;;3.30;74.92;103294.22;6105468;19;20006;-76
2023/04/03 00:22:59;;;;;;;6.68;2.08;;;;;;;3.32;74.80;103299.47;6106419;19;20231;-78
2023/04/03 00:25:04;;;;;;;5.40;2.20;;;;;;;3.31;74.77;103297.69;6104257;19;20028;-76
2023/04/03 00:27:13;;;;;;;2.45;1.70;;;;;;;3.26;75.09;103300.16;6107448;19;20463;-76
2023/04/03 00:29:18;;;;;;;4.40;1.85;;;;;;;3.21;75.32;103295.66;6104283;19;20836;-76
2023/04/03 00:31:23;;;;;;;2.22;1.70;;;;;;;3.20;75.06;103299.09;6103534;19;20610;-78
2023/04/03 00:33:27;;;;;;;2.22;1.70;;;;;;;3.17;75.10;103304.22;6104875;19;20672;-77
2023/04/03 00:35:37;;;;;;;2.47;1.60;;;;;;;3.17;75.17;103305.09;6106933;19;20022;-77
2023/04/03 00:37:43;;;;;;;5.78;2.25;;;;;;;3.19;75.09;103307.75;6108302;19;20030;-77
2023/04/03 00:39:48;;;;;;;3.33;2.05;;;;;;;3.10;74.72;103304.84;6105632;19;20015;-77
2023/04/03 00:41:53;;;;;;;4.25;2.17;;;;;;;3.07;75.01;103303.94;6104059;19;20487;-76
2023/04/03 00:43:58;;;;;;;3.28;2.05;;;;;;;3.05;75.02;103297.81;6105043;19;20003;-77
2023/04/03 00:46:05;;;;;;;5.35;2.15;;;;;;;3.05;75.15;103304.72;6110039;19;20042;-76
2023/04/03 00:48:16;;;;;;;4.35;2.00;;;;;;;3.01;75.00;103303.75;6107038;19;20539;-76
2023/04/03 00:50:22;;;;;;;4.55;2.03;;;;;;;3.02;74.96;103300.31;6109406;19;20106;-75
2023/04/03 00:52:34;;;;;;;4.72;2.30;;;;;;;3.02;75.19;103309.81;6100831;19;20777;-76
2023/04/03 00:54:40;;;;;;;3.30;1.90;;;;;;;3.04;74.71;103302.97;6109622;19;20011;-77
2023/04/03 00:56:48;;;;;;;4.20;1.98;;;;;;;3.00;74.98;103306.28;6092330;19;20187;-76
2023/04/03 00:59:01;;;;;;;2.17;1.95;;;;;;;2.98;74.72;103303.66;6114563;19;20085;-77
2023/04/03 01:01:13;;;;;;;3.67;1.95;;;;;;;2.98;74.49;103307.97;6119387;19;20033;-76
2023/04/03 01:03:18;;;;;;;5.80;2.42;;;;;;;2.91;74.48;103308.63;6119765;19;20015;-76
2023/04/03 01:05:24;;;;;;;4.57;1.85;;;;;;;2.96;74.50;103309.66;6120777;19;20307;-76
2023/04/03 01:07:35;;;;;;;3.75;1.95;;;;;;;2.92;74.61;103318.16;6121812;19;20355;-77
2023/04/03 01:09:41;;;;;;;4.57;2.10;;;;;;;2.93;74.60;103314.75;6108042;19;20035;-78
2023/04/03 01:11:46;;;;;;;5.07;2.83;;;;;;;2.92;74.54;103313.84;6109780;19;20019;-76
2023/04/03 01:13:51;;;;;;;2.65;1.90;;;;;;;2.94;74.60;103317.38;6110588;19;20452;-76
2023/04/03 01:15:56;;;;;;;3.00;1.80;;;;;;;2.91;74.35;103317.28;6105536;19;20455;-76
2023/04/03 01:18:04;;;;;;;2.42;1.90;;;;;;;2.93;74.38;103314.75;6106392;19;20010;-76
2023/04/03 01:20:48;;;;;;;7.43;2.47;;;;;;;2.87;74.27;103315.44;6083753;19;20007;-77
2023/04/03 01:23:01;;;;;;;3.72;2.13;;;;;;;2.91;74.21;103319.00;6098592;19;20011;-77
2023/04/03 01:25:08;;;;;;;3.90;2.08;;;;;;;2.86;74.63;103311.94;6102137;19;20015;-77
2023/04/03 01:27:13;;;;;;;3.85;2.30;;;;;;;2.84;74.46;103317.91;6103343;19;20016;-77
2023/04/03 01:29:19;;;;;;;6.03;2.25;;;;;;;2.80;74.42;103316.06;6106788;19;20014;-76
2023/04/03 01:31:29;;;;;;;3.80;1.88;;;;;;;2.78;74.51;103323.81;6104434;19;20038;-76
2023/04/03 01:33:39;;;;;;;5.45;2.20;;;;;;;2.76;74.73;103325.47;6099178;19;20082;-77
2023/04/03 01:35:44;;;;;;;4.93;2.00;;;;;;;2.72;74.98;103325.34;6102751;19;20002;-77
2023/04/03 01:37:52;;;;;;;3.70;2.22;;;;;;;2.72;74.98;103321.03;6104941;19;20801;-77
2023/04/03 01:39:56;;;;;;;3.88;1.92;;;;;;;2.67;75.21;103326.91;6104611;19;20007;-77
2023/04/03 01:42:01;;;;;;;3.72;2.00;;;;;;;2.62;75.26;103324.16;6101814;19;20419;-77
2023/04/03 01:44:08;;;;;;;4.82;2.28;;;;;;;2.62;75.02;103321.56;6103741;19;20011;-77
2023/04/03 01:46:13;;;;;;;4.35;1.90;;;;;;;2.64;75.19;103322.50;6105634;19;20335;-77
2023/04/03 01:48:19;;;;;;;4.38;1.90;;;;;;;2.60;75.16;103320.63;6103395;19;20697;-77
2023/04/03 01:50:27;;;;;;;2.70;2.03;;;;;;;2.62;75.05;103318.97;6104249;19;20530;-76
2023/04/03 01:52:31;;;;;;;4.22;2.10;;;;;;;2.59;75.15;103318.88;6095782;19;20748;-77
2023/04/03 01:54:36;;;;;;;3.72;2.00;;;;;;;2.56;75.20;103322.25;6103236;19;20078;-77
2023/04/03 01:56:45;;;;;;;4.38;2.30;;;;;;;2.55;75.03;103323.06;6100966;19;20011;-77
2023/04/03 01:58:50;;;;;;;4.10;2.00;;;;;;;2.49;75.48;103322.00;6102086;19;20082;-77
2023/04/03 02:00:55;;;;;;;3.67;1.75;;;;;;;2.45;75.38;103318.44;6102511;19;20027;-77
2023/04/03 02:03:00;;;;;;;2.97;1.88;;;;;;;2.38;75.93;103324.25;6101290;19;20003;-76
2023/04/03 02:05:06;;;;;;;3.47;2.10;;;;;;;2.31;75.91;103320.53;6097250;19;20011;-77
2023/04/03 02:07:16;;;;;;;3.05;1.75;;;;;;;2.33;76.20;103324.06;6101748;19;20434;-77
2023/04/03 02:09:21;;;;;;;5.15;1.95;;;;;;;2.33;75.86;103329.25;6103095;19;20039;-77
2023/04/03 02:11:26;;;;;;;3.70;1.80;;;;;;;2.26;76.36;103335.06;6100276;19;20014;-78
2023/04/03 02:13:31;;;;;;;3.78;2.00;;;;;;;2.25;76.49;103335.03;6103148;19;20494;-78
2023/04/03 02:15:36;;;;;;;2.60;1.88;;;;;;;2.23;76.67;103340.16;6102632;19;20390;-77
2023/04/03 02:17:42;;;;;;;3.65;1.90;;;;;;;2.15;76.85;103339.88;6102799;19;20002;-78
2023/04/03 02:19:48;;;;;;;3.63;2.10;;;;;;;2.13;77.14;103333.78;6101562;19;20367;-76
2023/04/03 02:21:52;;;;;;;5.90;2.17;;;;;;;2.10;77.21;103338.84;6102615;19;19998;-76
2023/04/03 02:24:00;;;;;;;3.83;2.00;;;;;;;2.08;77.49;103337.03;6103255;19;20007;-76
2023/04/03 02:26:09;;;;;;;3.92;2.25;;;;;;;2.04;77.61;103335.19;6099007;19;20593;-76
2023/04/03 02:28:13;;;;;;;4.03;2.03;;;;;;;2.01;77.55;103351.50;6100422;19;20015;-76
2023/04/03 02:30:18;;;;;;;3.88;1.80;;;;;;;1.96;77.92;103353.94;6100739;19;20014;-76
2023/04/03 02:32:23;;;;;;;2.83;1.90;;;;;;;1.92;78.07;103353.75;6100220;19;20003;-77
2023/04/03 02:34:28;;;;;;;5.22;2.35;;;;;;;1.89;78.14;103351.94;6098853;19;20014;-76
2023/04/03 02:36:33;;;;;;;5.30;2.22;;;;;;;1.86;78.57;103351.84;6099259;19;20396;-76
2023/04/03 02:38:40;;;;;;;4.18;2.08;;;;;;;1.85;78.84;103351.81;6103344;19;20513;-76
2023/04/03 02:40:48;;;;;;;4.22;2.00;;;;;;;1.82;78.72;103346.47;6103558;19;20007;-76
2023/04/03 02:42:53;;;;;;;5.78;2.80;;;;;;;1.80;78.93;103349.03;6100269;19;20055;-76
2023/04/03 02:45:00;;;;;;;3.28;2.00;;;;;;;1.81;78.99;103347.31;6099695;19;20039;-76
2023/04/03 02:47:05;;;;;;;3.80;1.92;;;;;;;1.76;78.73;103349.72;6101403;19;20087;-77
2023/04/03 02:49:12;;;;;;;3.35;1.95;;;;;;;1.71;79.30;103344.41;6101674;19;20011;-77
2023/04/03 02:51:17;;;;;;;4.32;2.05;;;;;;;1.68;79.50;103348.56;6099977;19;20450;-77
2023/04/03 02:53:22;;;;;;;3.15;2.20;;;;;;;1.63;79.47;103356.19;6099446;19;20002;-77
2023/04/03 02:55:27;;;;;;;3.47;2.00;;;;;;;1.61;79.67;103357.84;6101575;19;20039;-79
2023/04/03 02:57:35;;;;;;;4.57;2.42;;;;;;;1.60;79.62;103350.88;6102086;19;20349;-75
2023/04/03 02:59:40;;;;;;;4.85;2.10;;;;;;;1.56;80.09;103359.38;6099528;19;20006;-77
2023/04/03 03:01:45;;;;;;;3.55;2.10;;;;;;;1.51;79.93;103353.16;6101541;19;20296;-79
2023/04/03 03:03:50;;;;;;;5.45;2.45;;;;;;;1.48;79.70;103345.25;6103540;19;20042;-76
2023/04/03 03:06:04;;;;;;;4.13;2.03;;;;;;;1.42;79.90;103352.78;6101043;19;20046;-76
2023/04/03 03:08:09;;;;;;;3.38;2.10;;;;;;;1.36;80.58;103349.97;6100386;19;20017;-76
2023/04/03 03:10:14;;;;;;;3.92;2.10;;;;;;;1.28;80.86;103349.69;6104071;19;20014;-76
2023/04/03 03:12:21;;;;;;;5.38;2.83;;;;;;;1.26;80.80;103354.81;6100263;19;20015;-75
2023/04/03 03:14:29;;;;;;;5.00;2.45;;;;;;;1.25;81.76;103357.34;6100334;19;20007;-73
2023/04/03 03:16:34;;;;;;;4.35;2.45;;;;;;;1.14;81.72;103356.94;6099273;19;20555;-78
2023/04/03 03:18:39;;;;;;;3.55;2.15;;;;;;;1.10;81.17;103367.97;6101397;19;20021;-76
2023/04/03 03:20:44;;;;;;;4.95;2.45;;;;;;;1.05;81.02;103365.22;6098607;19;20003;-76
2023/04/03 03:22:49;;;;;;;6.10;2.67;;;;;;;0.99;81.62;103364.09;6101288;19;20010;-76
2023/04/03 03:24:54;;;;;;;3.67;2.05;;;;;;;0.93;82.94;103359.56;6102165;19;20010;-76
2023/04/03 03:26:59;;;;;;;3.83;2.20;;;;;;;0.92;81.86;103359.47;6101480;19;20032;-76
2023/04/03 03:29:04;;;;;;;2.35;2.00;;;;;;;0.90;81.71;103363.75;6104362;19;20006;-76
2023/04/03 03:31:12;;;;;;;4.55;2.45;;;;;;;0.88;82.29;103366.25;6101702;19;20027;-76
2023/04/03 03:33:15;;;;;;;3.78;2.58;;;;;;;0.87;82.59;103367.09;6101144;19;20014;-76
2023/04/03 03:35:20;;;;;;;4.63;2.03;;;;;;;0.84;81.95;103362.66;6100557;19;20009;-76
2023/04/03 03:37:25;;;;;;;5.18;2.40;;;;;;;0.82;82.73;103371.19;6101257;19;20010;-75
2023/04/03 03:40:14;;;;;;;4.68;2.40;;;;;;;0.83;83.21;103379.00;6100723;19;20014;-72
2023/04/03 03:55:22;;;;;;;3.90;2.17;;;;;;;0.65;83.06;103384.31;6010418;19;20028;-72
2023/04/03 04:00:52;;;;;;;;;;;;;;;;;;;;;
2023/04/03 04:03:22;;;;;;;3.17;2.25;;;;;;;0.61;83.11;103385.00;5985815;19;20014;-70
2023/04/03 04:06:26;;;;;;;4.93;2.47;;;;;;;0.59;83.26;103378.00;6050414;19;20056;-72
2023/04/03 04:12:40;;;;;;;;;;;;;;;;;;;;;
2023/04/03 04:18:54;;;;;;;3.60;2.60;;;;;;;0.49;84.68;103374.16;5966249;19;20013;-71
2023/04/03 04:21:41;;;;;;;;;;;;;;;;;;;;;
2023/04/03 04:24:53;;;;;;;4.45;3.00;;;;;;;0.38;84.32;103394.38;5940051;19;20509;-71
2023/04/03 04:27:59;;;;;;;4.55;2.47;;;;;;;0.32;84.43;103388.97;5986888;19;20007;-71
2023/04/03 04:30:47;;;;;;;4.60;2.83;;;;;;;0.30;84.30;103389.72;6027837;19;20046;-72
2023/04/03 04:48:04;;;;;;;3.83;2.38;;;;;;;0.16;85.66;103395.19;6036125;19;20720;-72
2023/04/03 04:54:21;;;;;;;5.80;2.30;;;;;;;0.19;86.25;103410.81;5908099;19;20069;-72
2023/04/03 04:59:23;;;;;;;4.20;2.20;;;;;;;0.21;85.52;103405.69;5992756;19;20014;-72
2023/04/03 05:05:02;;;;;;;4.47;2.15;;;;;;;0.28;86.21;103415.50;6018212;19;20559;-70
2023/04/03 05:10:32;;;;;;;3.85;2.20;;;;;;;0.33;85.85;103413.13;5985746;19;20106;-72
2023/04/03 05:16:07;;;;;;;;;;;;;;;;;;;;;
2023/04/03 05:21:29;;;;;;;;;;;;;;;;;;;;;
2023/04/03 05:23:55;;;;;;;4.05;2.30;;;;;;;0.37;86.33;103415.00;6037037;19;20047;-72
2023/04/03 05:27:00;;;;;;;6.72;3.45;;;;;;;0.37;86.35;103417.59;6000590;19;20014;-71
2023/04/03 05:29:38;;;;;;;5.93;2.90;;;;;;;0.40;86.25;103422.91;6003911;19;20074;-70
2023/04/03 05:32:50;;;;;;;;;;;;;;;;;;;;;
2023/04/03 05:38:32;;;;;;;6.95;3.00;;;;;;;0.44;86.27;103433.44;6069622;19;20021;-71
2023/04/03 05:44:20;;;;;;;6.65;2.92;;;;;;;0.50;86.58;103424.16;5984546;19;20421;-71
2023/04/03 05:46:50;;;;;;;5.53;3.58;;;;;;;0.53;86.67;103430.38;6048988;19;20451;-72
2023/04/03 05:49:31;;;;;;;5.13;3.05;;;;;;;0.57;86.32;103426.22;5952537;19;20010;-72
2023/04/03 05:52:25;;;;;;;5.80;3.10;;;;;;;0.64;86.39;103421.38;6027784;19;20022;-72
2023/04/03 05:58:05;;;;;;;3.08;2.30;;;;;;;1.01;85.68;103429.78;5943583;19;20524;-70
2023/04/03 06:01:03;;;;;;;7.35;3.58;;;;;;;1.22;85.13;103435.81;5966060;19;20044;-71
2023/04/03 06:06:38;;;;;;;7.72;3.55;;;;;;;1.56;84.01;103439.72;6030960;19;20011;-71
2023/04/03 06:16:17;;;;;;;6.30;3.35;;;;;;;2.15;82.28;103441.06;5974514;19;20006;-71
2023/04/03 06:19:00;;;;;;;9.07;4.53;;;;;;;2.36;81.84;103443.53;6002582;19;20014;-72
2023/04/03 06:21:51;;;;;;;7.13;3.25;;;;;;;2.47;81.20;103449.09;6053186;19;20707;-72
2023/04/03 06:24:24;;;;;;;5.18;3.08;;;;;;;2.57;80.29;103451.19;6044945;19;20014;-72
2023/04/03 06:27:32;;;;;;;6.20;3.40;;;;;;;2.73;79.92;103452.59;5929428;19;20014;-71
2023/04/03 06:36:56;;;;;;;7.28;3.97;;;;;;;3.21;77.46;103457.66;6022044;19;20007;-71
2023/04/03 06:45:49;;;;;;;4.68;3.00;;;;;;;3.51;75.77;103452.53;5976462;19;20510;-72
2023/04/03 06:52:19;;;;;;;4.78;3.00;;;;;;;3.60;74.37;103461.44;6037865;19;20078;-71
2023/04/03 06:57:55;;;;;;;9.98;3.30;;;;;;;4.00;73.79;103460.03;6061319;19;20007;-70
2023/04/03 07:18:59;;;;;;;6.70;3.78;;;;;;;5.23;68.04;103478.06;6042611;19;20045;-72
2023/04/03 07:39:44;;;;;;;;;;;;;;;;;;;;;
2023/04/03 07:45:39;;;;;;;6.72;2.67;;;;;;;5.97;64.30;103495.41;5927487;19;20026;-71
2023/04/03 07:50:52;;;;;;;6.55;3.15;;;;;;;6.37;63.51;103504.06;6000443;19;20009;-72
2023/04/03 07:57:08;;;;;;;7.95;2.97;;;;;;;6.36;61.53;103489.25;6036326;19;20018;-71
2023/04/03 08:09:37;;;;;;;4.72;2.80;;;;;;;6.46;59.99;103498.16;5901062;19;20014;-70
2023/04/03 08:12:11;;;;;;;;;;;;;;;;;;;;;
2023/04/03 08:15:11;;;;;;;8.00;2.83;;;;;;;7.13;60.11;103511.53;5959798;19;19998;-71
2023/04/03 08:21:14;;;;;;;5.88;2.83;;;;;;;6.81;57.45;103517.09;5987925;19;20015;-71
2023/04/03 08:24:22;;;;;;;8.27;2.75;;;;;;;7.13;57.46;103511.53;6037880;19;20030;-71
2023/04/03 08:39:31;;;;;;;5.88;2.78;;;;;;;7.65;56.84;103520.22;5968259;19;20034;-71
2023/04/03 09:07:24;;;;;;;2.75;1.83;;;;;;;8.32;48.36;103507.13;6080825;19;20034;-79
2023/04/03 09:09:35;;;;;;;4.97;2.40;;;;;;;8.46;48.65;103504.72;6107652;19;20034;-79
2023/04/03 09:11:53;;;;;;;3.75;2.00;;;;;;;8.75;47.78;103502.41;6112398;19;20013;-79
2023/04/03 09:14:05;;;;;;;4.30;2.20;;;;;;;8.76;46.12;103505.00;6110346;19;20498;-79
2023/04/03 09:16:22;;;;;;;3.40;1.77;;;;;;;8.86;46.33;103507.75;6100226;19;20017;-79
2023/04/03 09:18:35;;;;;;;4.90;2.22;;;;;;;8.36;44.08;103503.69;6116642;19;20038;-77
2023/04/03 09:20:48;;;;;;;3.90;1.90;;;;;;;8.52;42.90;103504.78;6116648;19;20010;-78
2023/04/03 09:22:54;;;;;;;1.77;1.55;;;;;;;8.36;43.65;103507.19;6109734;19;20017;-78
2023/04/03 09:25:04;;;;;;;3.92;1.98;;;;;;;8.43;42.56;103502.06;6112365;19;20534;-78
2023/04/03 09:27:13;;;;;;;7.00;1.92;;;;;;;8.84;41.41;103512.09;6106978;19;20417;-79
2023/04/03 09:29:24;;;;;;;2.42;1.58;;;;;;;8.71;40.62;103498.84;6105636;19;20006;-81
2023/04/03 09:31:33;;;;;;;2.65;1.67;;;;;;;9.00;41.78;103499.16;6108292;19;20078;-80
2023/04/03 09:33:38;;;;;;;1.52;1.42;;;;;;;8.81;39.28;103504.19;6105312;19;20392;-80
2023/04/03 09:35:44;;;;;;;1.92;1.40;;;;;;;8.78;38.18;103497.19;6104906;19;20006;-79
2023/04/03 09:37:54;;;;;;;4.65;2.03;;;;;;;8.81;39.41;103506.81;6104151;19;20417;-79
2023/04/03 09:39:59;;;;;;;3.85;1.70;;;;;;;8.82;39.30;103498.06;6104556;19;20014;-78
2023/04/03 09:42:07;;;;;;;4.30;1.70;;;;;;;9.14;38.22;103498.38;6106116;19;20017;-78
2023/04/03 09:44:29;;;;;;;1.73;1.35;;;;;;;8.90;36.32;103485.91;6109755;19;20529;-78
2023/04/03 09:46:39;;;;;;;1.23;1.13;;;;;;;8.87;36.55;103486.75;6105630;19;20086;-80
2023/04/03 09:48:53;;;;;;;1.40;1.30;;;;;;;8.84;37.10;103491.97;6109161;19;20007;-78
2023/04/03 09:51:18;;;;;;;2.05;1.30;;;;;;;8.90;36.63;103485.91;6108923;19;20091;-79
2023/04/03 09:53:30;;;;;;;1.90;1.58;;;;;;;8.83;37.46;103478.88;6109700;19;20043;-79
2023/04/03 09:55:44;;;;;;;2.90;1.52;;;;;;;9.34;38.27;103472.28;6116208;19;20375;-79
2023/04/03 09:57:51;;;;;;;1.63;1.30;;;;;;;9.20;38.22;103469.56;6117046;19;20345;-80
2023/04/03 10:00:04;;;;;;;1.38;1.27;;;;;;;9.16;38.77;103473.91;6122755;19;20050;-79
2023/04/03 10:02:26;;;;;;;2.88;1.40;;;;;;;9.07;36.25;103476.47;6120236;19;20014;-80
2023/04/03 10:04:41;;;;;;;1.55;1.30;;;;;;;9.20;35.47;103474.81;6110672;19;20007;-79
2023/04/03 10:06:47;;;;;;;2.38;1.52;;;;;;;9.46;35.82;103469.75;6110811;19;20014;-79
2023/04/03 10:09:04;;;;;;;4.47;1.85;;;;;;;9.45;35.05;103475.84;6110466;19;20317;-79
2023/04/03 10:11:15;;;;;;;2.60;1.23;;;;;;;9.37;34.91;103467.94;6107182;19;20011;-80
2023/04/03 10:13:22;;;;;;;2.20;1.40;;;;;;;9.56;35.40;103462.81;6104629;19;20006;-80
2023/04/03 10:15:31;;;;;;;4.47;2.00;;;;;;;9.72;36.37;103467.28;6105599;19;20036;-83
2023/04/03 10:17:48;;;;;;;2.70;1.50;;;;;;;9.66;35.78;103462.88;6104786;19;20386;-75
2023/04/03 10:19:58;;;;;;;4.65;1.80;;;;;;;9.31;36.60;103461.75;6105247;19;20016;-78
2023/04/03 10:22:07;;;;;;;2.90;1.50;;;;;;;9.44;36.77;103459.22;6102038;19;20012;-81
2023/04/03 10:24:16;;;;;;;1.50;1.40;;;;;;;9.64;37.07;103458.47;6080027;19;20074;-77
2023/04/03 10:26:35;;;;;;;2.28;1.45;;;;;;;9.96;36.07;103448.13;6099876;19;20479;-78
2023/04/03 10:28:54;;;;;;;2.85;1.75;;;;;;;9.94;36.15;103447.22;6099616;19;20013;-80
2023/04/03 10:31:11;;;;;;;3.30;1.67;;;;;;;10.23;35.65;103438.56;6102269;19;20441;-77
2023/04/03 10:33:47;;;;;;;1.58;1.48;;;;;;;10.06;34.95;103439.41;6101813;19;20321;-78
2023/04/03 10:36:11;;;;;;;4.13;1.63;;;;;;;10.00;32.54;103439.38;6104084;19;20082;-78
2023/04/03 10:38:26;;;;;;;2.67;1.20;;;;;;;9.89;31.79;103435.81;6101146;19;20011;-78
2023/04/03 10:40:37;;;;;;;4.35;1.52;;;;;;;9.56;32.53;103444.44;6102271;19;20014;-78
2023/04/03 10:42:49;;;;;;;2.78;1.65;;;;;;;9.55;32.65;103446.16;6100368;19;20090;-80
2023/04/03 10:45:10;;;;;;;2.25;1.50;;;;;;;9.63;32.31;103444.44;6104670;19;20010;-76
2023/04/03 10:47:23;;;;;;;3.13;1.20;;;;;;;10.14;32.43;103439.44;6098877;19;20121;-76
2023/04/03 10:49:42;;;;;;;1.40;1.30;;;;;;;10.16;31.66;103434.16;6097600;19;20014;-76
2023/04/03 10:52:08;;;;;;;1.45;1.23;;;;;;;10.37;31.93;103447.38;6100268;19;20042;-79
2023/04/03 10:54:17;;;;;;;2.20;1.30;;;;;;;10.37;30.86;103436.00;6102085;19;20476;-76
2023/04/03 10:56:33;;;;;;;1.33;1.08;;;;;;;10.29;31.50;103446.50;6105238;19;20384;-78
2023/04/03 10:58:42;;;;;;;1.77;1.25;;;;;;;10.24;32.04;103445.56;6057261;19;20043;-76
2023/04/03 11:00:51;;;;;;;1.30;1.20;;;;;;;10.19;32.21;103449.94;6105301;19;20106;-80
2023/04/03 11:03:02;;;;;;;4.50;1.40;;;;;;;10.36;33.12;103437.75;6101491;19;20006;-79
2023/04/03 11:05:10;;;;;;;5.43;1.48;;;;;;;10.23;32.03;103441.19;6102284;19;20006;-76
2023/04/03 11:07:21;;;;;;;3.10;1.48;;;;;;;10.07;30.55;103442.91;6102321;19;20014;-78
2023/04/03 11:09:31;;;;;;;2.83;1.15;;;;;;;10.28;31.59;103439.50;6101241;19;20007;-77
2023/04/03 11:11:38;;;;;;;1.58;1.20;;;;;;;10.34;31.94;103431.63;6103638;19;20024;-76
2023/04/03 11:13:49;;;;;;;2.63;1.30;;;;;;;10.11;31.92;103436.81;6100118;19;20816;-77
2023/04/03 11:15:55;;;;;;;2.80;1.30;;;;;;;10.42;33.08;103429.88;6081521;19;20013;-77
2023/04/03 11:18:07;;;;;;;1.35;1.00;;;;;;;10.17;31.05;103428.94;6101340;19;20007;-79
2023/04/03 11:20:21;;;;;;;1.38;1.00;;;;;;;10.20;31.73;103421.03;6101879;19;20015;-76
2023/04/03 11:22:30;;;;;;;2.60;1.52;;;;;;;10.31;31.06;103424.59;6102705;19;20038;-81
2023/04/03 11:24:36;;;;;;;2.67;1.45;;;;;;;10.14;31.33;103433.28;6096695;19;20038;-75
2023/04/03 11:26:47;;;;;;;3.22;1.30;;;;;;;10.22;31.37;103423.69;6082732;19;20522;-79
2023/04/03 11:28:56;;;;;;;2.83;1.30;;;;;;;10.26;30.77;103410.53;6098307;19;20590;-77
2023/04/03 11:31:08;;;;;;;2.83;1.00;;;;;;;10.27;31.08;103407.09;6097237;19;20039;-81
2023/04/03 11:33:34;;;;;;;1.40;1.17;;;;;;;10.39;29.33;103410.59;6102930;19;20099;-78
2023/04/03 11:35:40;;;;;;;2.30;1.25;;;;;;;10.01;28.53;103414.88;6104086;19;20094;-79
2023/04/03 11:37:53;;;;;;;1.23;1.00;;;;;;;10.31;29.32;103410.59;6082520;19;20011;-80
2023/04/03 11:40:05;;;;;;;2.90;1.15;;;;;;;10.27;28.28;103399.19;6101987;19;20010;-79
2023/04/03 11:42:18;;;;;;;1.53;1.10;;;;;;;10.39;28.09;103400.09;6101236;19;20006;-80
2023/04/03 11:44:36;;;;;;;3.13;1.15;;;;;;;10.52;28.27;103393.97;6099215;19;20038;-76
2023/04/03 11:46:58;;;;;;;1.10;1.02;;;;;;;10.30;27.81;103391.31;6097186;19;20011;-78
2023/04/03 11:49:06;;;;;;;1.33;1.27;;;;;;;10.39;27.24;103390.44;6102112;19;20028;-77
2023/04/03 11:51:49;;;;;;;1.85;1.10;;;;;;;10.45;26.92;103387.84;6100672;19;20262;-76
2023/04/03 11:53:55;;;;;;;1.45;0.90;;;;;;;10.13;26.03;103382.47;6101001;19;20014;-77
2023/04/03 11:56:01;;;;;;;1.05;0.90;;;;;;;9.79;26.31;103379.75;6103255;19;20446;-78
2023/04/03 11:58:15;;;;;;;1.27;0.90;;;;;;;10.22;26.64;103379.88;6101860;19;20014;-77
2023/04/03 12:01:05;;;;;;;4.18;1.35;;;;;;;10.35;27.20;103377.28;6101866;19;20632;-79
2023/04/03 12:03:36;;;;;;;1.90;1.08;;;;;;;10.24;26.17;103380.78;6085139;19;20370;-80
2023/04/03 12:05:44;;;;;;;3.28;1.10;;;;;;;10.38;26.11;103367.69;6102601;19;20527;-79
2023/04/03 12:08:19;;;;;;;2.38;1.10;;;;;;;10.59;26.63;103374.69;6105815;19;19999;-79
2023/04/03 12:10:24;;;;;;;0.90;0.90;;;;;;;10.90;26.78;103375.56;6110963;19;20010;-78
2023/04/03 12:12:40;;;;;;;0.90;0.85;;;;;;;10.77;26.29;103364.16;6111151;19;20034;-78
2023/04/03 12:14:45;;;;;;;0.90;0.90;;;;;;;10.92;27.02;103355.38;6116688;19;20589;-78
2023/04/03 12:16:53;;;;;;;2.05;1.10;;;;;;;10.81;26.27;103366.78;6113602;19;20014;-79
2023/04/03 12:19:02;;;;;;;2.45;1.05;;;;;;;10.83;26.33;103357.16;6116202;19;20007;-76
2023/04/03 12:21:13;;;;;;;1.67;1.00;;;;;;;10.62;25.78;103361.53;6111639;19;20038;-77
2023/04/03 12:23:35;;;;;;;4.50;1.27;;;;;;;10.37;26.48;103365.91;6113670;19;20282;-78
2023/04/03 12:25:51;;;;;;;2.10;1.08;;;;;;;10.04;26.32;103359.69;6113410;19;20014;-78
2023/04/03 12:27:59;;;;;;;2.58;1.08;;;;;;;10.34;27.42;103352.75;6115157;19;20007;-76
2023/04/03 12:30:15;;;;;;;1.13;1.02;;;;;;;10.52;28.42;103354.53;6107200;19;20017;-77
2023/04/03 12:32:28;;;;;;;1.27;1.13;;;;;;;10.44;26.76;103354.53;6109120;19;20018;-76
2023/04/03 12:34:52;;;;;;;1.08;1.00;;;;;;;10.45;26.76;103347.50;6108765;19;20003;-76
2023/04/03 12:37:08;;;;;;;2.17;0.98;;;;;;;10.37;27.12;103349.25;6115508;19;20066;-75
2023/04/03 12:39:46;;;;;;;2.88;1.10;;;;;;;10.52;25.99;103338.75;6115664;19;20062;-79
2023/04/03 12:41:59;;;;;;;1.08;1.00;;;;;;;10.62;27.22;103344.91;6097402;19;20028;-79
2023/04/03 12:44:42;;;;;;;3.15;1.40;;;;;;;10.16;28.31;103329.94;6119579;19;20011;-82
2023/04/03 12:46:51;;;;;;;1.08;0.95;;;;;;;10.62;28.84;103337.00;6116311;19;20041;-80
2023/04/03 12:48:59;;;;;;;1.25;1.15;;;;;;;10.62;28.87;103330.00;6124370;19;20015;-79
2023/04/03 12:51:05;;;;;;;2.70;1.25;;;;;;;10.68;27.82;103329.09;6129342;19;20039;-77
2023/04/03 12:53:20;;;;;;;1.23;1.13;;;;;;;10.96;27.70;103330.81;6098940;19;20062;-78
2023/04/03 12:55:26;;;;;;;3.65;1.55;;;;;;;11.08;27.44;103326.41;6120123;19;20011;-78
2023/04/03 12:57:32;;;;;;;2.88;1.52;;;;;;;10.69;28.43;103344.00;6120580;19;20026;-79
2023/04/03 12:59:39;;;;;;;2.67;1.27;;;;;;;10.65;28.09;103334.38;6113358;19;20039;-79
2023/04/03 13:01:44;;;;;;;2.78;1.40;;;;;;;10.91;28.79;103316.78;6112470;19;20014;-77
2023/04/03 13:03:54;;;;;;;2.22;1.33;;;;;;;10.90;29.02;103320.31;6113058;19;20014;-81
2023/04/03 13:06:03;;;;;;;1.75;1.38;;;;;;;10.70;28.56;103322.97;6109251;19;20011;-78
2023/04/03 13:08:16;;;;;;;1.88;1.23;;;;;;;10.93;29.89;103314.19;6109906;19;20018;-79
2023/04/03 13:10:24;;;;;;;2.35;1.42;;;;;;;10.91;29.07;103316.78;6108996;19;20475;-77
2023/04/03 13:12:29;;;;;;;1.80;1.13;;;;;;;10.88;30.08;103313.31;6100612;19;20020;-77
2023/04/03 13:14:36;;;;;;;2.20;1.75;;;;;;;10.99;29.35;103315.00;6104497;19;20039;-77
2023/04/03 13:16:41;;;;;;;2.65;1.40;;;;;;;10.58;28.89;103306.31;6106852;19;20018;-77
2023/04/03 13:18:54;;;;;;;3.00;1.40;;;;;;;10.98;30.54;103312.41;6103871;19;20426;-76
2023/04/03 13:21:04;;;;;;;4.82;1.90;;;;;;;10.64;30.03;103314.22;6106278;19;20024;-82
2023/04/03 13:23:14;;;;;;;2.22;1.27;;;;;;;10.76;30.06;103316.81;6108561;19;20013;-80
2023/04/03 13:25:22;;;;;;;2.97;1.50;;;;;;;11.03;30.96;103312.38;6104836;19;20007;-77
2023/04/03 13:27:32;;;;;;;1.58;1.38;;;;;;;11.35;30.97;103309.66;6110431;19;20235;-80
2023/04/03 13:29:40;;;;;;;3.17;1.70;;;;;;;11.35;31.05;103315.78;6105807;19;20019;-76
2023/04/03 13:31:45;;;;;;;2.33;1.33;;;;;;;11.28;29.78;103315.81;6100379;19;20007;-78
2023/04/03 13:33:58;;;;;;;3.65;1.85;;;;;;;10.76;30.41;103316.81;6082815;19;20006;-78
2023/04/03 13:36:05;;;;;;;;;;;;;;;10.93;31.00;103308.91;6105007;19;20041;-79
2023/04/03 13:38:26;;;;;;;3.10;1.60;;;;;;;10.99;30.29;103319.41;6102987;19;20274;-77
2023/04/03 13:40:31;;;;;;;3.25;1.88;;;;;;;11.01;30.34;103314.16;6103656;19;20034;-73
2023/04/03 13:43:02;;;;;;;2.50;1.45;;;;;;;11.41;31.01;103312.25;6105310;19;20014;-81
2023/04/03 13:45:39;;;;;;;3.03;1.52;;;;;;;11.56;30.02;103312.19;6105302;19;20034;-70
2023/04/03 13:48:18;;;;;;;2.72;1.63;;;;;;;11.57;30.74;103302.53;6077142;19;20122;-70
2023/04/03 13:50:30;;;;;;;4.65;1.45;;;;;;;11.73;30.59;103298.91;6104437;19;20070;-70
2023/04/03 13:52:47;;;;;;;3.08;1.52;;;;;;;11.76;30.46;103292.75;6067835;19;20003;-70
2023/04/03 13:54:57;;;;;;;2.88;1.75;;;;;;;11.50;30.20;103291.13;6104856;19;20530;-70
2023/04/03 13:57:04;;;;;;;2.28;1.92;;;;;;;11.03;29.20;103293.94;6105988;19;20090;-72
2023/04/03 13:59:25;;;;;;;3.25;1.60;;;;;;;11.10;30.56;103287.81;6104017;19;20086;-73
2023/04/03 14:01:40;;;;;;;3.03;1.40;;;;;;;10.89;30.34;103292.25;6101990;19;20014;-71